Time,TemperatureF,DewpointF,PressureIn,WindDirection,WindDirectionDegrees,WindSpeedMPH,WindSpeedGustMPH,Humidity,HourlyPrecipIn,Conditions,Clouds,dailyrainin,SoftwareType,DateUTC
2013-08-22 00:05:00,-999.9,-99.9,30.06,North,32767,-999.0,0.0,255,-99.99,,,0.00,Wunderground v.1.15,2013-08-22 06:05:00,
2013-08-22 00:20:00,-999.9,-99.9,30.06,North,32767,-999.0,0.0,255,-99.99,,,0.00,Wunderground v.1.15,2013-08-22 06:20:00,
2013-08-22 00:25:00,-999.9,-99.9,30.07,North,32767,-999.0,0.0,255,-99.99,,,0.00,Wunderground v.1.15,2013-08-22 06:25:00,
2013-08-22 00:35:00,-999.9,-99.9,30.07,North,32767,-999.0,0.0,255,-99.99,,,0.00,Wunderground v.1.15,2013-08-22 06:35:00,
2013-08-22 00:50:00,-999.9,-99.9,30.07,North,32767,-999.0,0.0,255,-99.99,,,0.00,Wunderground v.1.15,2013-08-22 06:50:00,
2013-08-22 01:05:00,-999.9,-99.9,30.07,North,32767,-999.0,0.0,255,-99.99,,,0.00,Wunderground v.1.15,2013-08-22 07:05:00,
2013-08-22 01:20:00,-999.9,-99.9,30.07,North,32767,-999.0,0.0,255,-99.99,,,0.00,Wunderground v.1.15,2013-08-22 07:20:00,
2013-08-22 01:35:00,-999.9,-99.9,30.08,North,32767,-999.0,0.0,255,-99.99,,,0.00,Wunderground v.1.15,2013-08-22 07:35:00,
2013-08-22 01:50:00,-999.9,-99.9,30.08,North,32767,-999.0,0.0,255,-99.99,,,0.00,Wunderground v.1.15,2013-08-22 07:50:00,
2013-08-22 02:05:00,-999.9,-99.9,30.08,North,32767,-999.0,0.0,255,-99.99,,,0.00,Wunderground v.1.15,2013-08-22 08:05:00,
2013-08-22 02:20:00,-999.9,-99.9,30.08,North,32767,-999.0,0.0,255,-99.99,,,0.00,Wunderground v.1.15,2013-08-22 08:20:00,
2013-08-22 02:35:00,-999.9,-99.9,30.08,North,32767,-999.0,0.0,255,-99.99,,,0.00,Wunderground v.1.15,2013-08-22 08:35:00,
2013-08-22 02:50:00,-999.9,-99.9,30.08,North,32767,-999.0,0.0,255,-99.99,,,0.00,Wunderground v.1.15,2013-08-22 08:50:00,
2013-08-22 03:05:00,-999.9,-99.9,30.08,North,32767,-999.0,0.0,255,-99.99,,,0.00,Wunderground v.1.15,2013-08-22 09:05:00,
2013-08-22 03:20:00,-999.9,-99.9,30.08,North,32767,-999.0,0.0,255,-99.99,,,0.00,Wunderground v.1.15,2013-08-22 09:20:00,
2013-08-22 03:35:00,-999.9,-99.9,30.08,North,32767,-999.0,0.0,255,-99.99,,,0.00,Wunderground v.1.15,2013-08-22 09:35:00,
2013-08-22 03:50:00,-999.9,-99.9,30.08,North,32767,-999.0,0.0,255,-99.99,,,0.00,Wunderground v.1.15,2013-08-22 09:50:00,
2013-08-22 04:05:00,-999.9,-99.9,30.08,North,32767,-999.0,0.0,255,-99.99,,,0.00,Wunderground v.1.15,2013-08-22 10:05:00,
2013-08-22 04:20:00,-999.9,-99.9,30.08,North,32767,-999.0,0.0,255,-99.99,,,0.00,Wunderground v.1.15,2013-08-22 10:20:00,
2013-08-22 04:25:00,-999.9,-99.9,30.08,North,32767,-999.0,0.0,255,-99.99,,,0.00,Wunderground v.1.15,2013-08-22 10:25:00,
2013-08-22 04:35:00,-999.9,-99.9,30.08,North,32767,-999.0,0.0,255,-99.99,,,0.00,Wunderground v.1.15,2013-08-22 10:35:00,
2013-08-22 04:50:00,-999.9,-99.9,30.09,North,32767,-999.0,0.0,255,-99.99,,,0.00,Wunderground v.1.15,2013-08-22 10:50:00,
2013-08-22 06:35:00,-999.9,-99.9,30.10,North,32767,-999.0,0.0,255,-99.99,,,0.00,Wunderground v.1.15,2013-08-22 12:35:00,
2013-08-22 06:50:00,-999.9,-99.9,30.09,North,32767,-999.0,0.0,255,-99.99,,,0.00,Wunderground v.1.15,2013-08-22 12:50:00,
2013-08-22 07:05:00,63.2,46.3,30.09,North,360,5.0,5.0,54,0.00,,,0.00,Wunderground v.1.15,2013-08-22 13:05:00,
2013-08-22 07:20:00,63.3,46.4,30.10,North,360,2.0,3.0,54,0.00,,,0.00,Wunderground v.1.15,2013-08-22 13:20:00,
2013-08-22 07:35:00,63.8,46.3,30.10,North,360,3.0,3.0,53,0.00,,,0.00,Wunderground v.1.15,2013-08-22 13:35:00,
2013-08-22 07:50:00,64.3,46.3,30.11,North,360,3.0,3.0,52,0.00,,,0.00,Wunderground v.1.15,2013-08-22 13:50:00,
2013-08-22 08:05:00,64.7,46.1,30.11,North,360,3.0,4.0,51,0.00,,,0.00,Wunderground v.1.15,2013-08-22 14:05:00,
2013-08-22 08:20:00,65.6,46.5,30.11,North,360,7.0,7.0,50,0.00,,,0.00,Wunderground v.1.15,2013-08-22 14:20:00,
2013-08-22 08:35:00,66.2,47.0,30.11,North,360,4.0,5.0,50,0.00,,,0.00,Wunderground v.1.15,2013-08-22 14:35:00,
2013-08-22 08:50:00,67.1,46.2,30.11,North,360,8.0,8.0,47,0.00,,,0.00,Wunderground v.1.15,2013-08-22 14:50:00,
2013-08-22 09:05:00,67.3,46.4,30.11,North,360,9.0,10.0,47,0.00,,,0.00,Wunderground v.1.15,2013-08-22 15:05:00,
2013-08-22 09:20:00,67.9,46.9,30.10,North,360,6.0,6.0,47,0.00,,,0.00,Wunderground v.1.15,2013-08-22 15:20:00,
2013-08-22 09:35:00,68.3,47.3,30.10,North,360,6.0,7.0,47,0.00,,,0.00,Wunderground v.1.15,2013-08-22 15:35:00,
2013-08-22 09:50:00,68.6,48.1,30.10,North,360,5.0,7.0,48,0.00,,,0.00,Wunderground v.1.15,2013-08-22 15:50:00,
2013-08-22 10:05:00,69.3,45.8,30.10,North,360,11.0,13.0,43,0.00,,,0.00,Wunderground v.1.15,2013-08-22 16:05:00,
2013-08-22 10:20:00,69.9,46.4,30.10,North,360,9.0,9.0,43,0.00,,,0.00,Wunderground v.1.15,2013-08-22 16:20:00,
2013-08-22 10:35:00,70.5,46.3,30.10,North,360,10.0,13.0,42,0.00,,,0.00,Wunderground v.1.15,2013-08-22 16:35:00,
2013-08-22 10:50:00,70.7,47.1,30.09,North,360,10.0,10.0,43,0.00,,,0.00,Wunderground v.1.15,2013-08-22 16:50:00,
2013-08-22 11:05:00,71.7,47.4,30.09,North,360,8.0,9.0,42,0.00,,,0.00,Wunderground v.1.15,2013-08-22 17:05:00,
2013-08-22 11:10:00,72.0,47.6,30.09,North,360,8.0,10.0,42,0.00,,,0.00,Wunderground v.1.15,2013-08-22 17:10:00,
2013-08-22 11:20:00,72.4,48.0,30.08,North,360,12.0,14.0,42,0.00,,,0.00,Wunderground v.1.15,2013-08-22 17:20:00,
2013-08-22 11:25:00,73.9,49.4,30.08,North,360,6.0,14.0,42,0.00,,,0.00,Wunderground v.1.15,2013-08-22 17:25:00,
2013-08-22 11:35:00,74.3,49.1,30.07,North,360,10.0,10.0,41,0.00,,,0.00,Wunderground v.1.15,2013-08-22 17:35:00,
2013-08-22 11:50:00,74.2,49.0,30.06,North,360,10.0,10.0,41,0.00,,,0.00,Wunderground v.1.15,2013-08-22 17:50:00,
2013-08-22 12:05:00,75.2,49.9,30.05,North,360,9.0,14.0,41,0.00,,,0.00,Wunderground v.1.15,2013-08-22 18:05:00,
2013-08-22 12:20:00,75.3,50.6,30.04,North,360,10.0,10.0,42,0.00,,,0.00,Wunderground v.1.15,2013-08-22 18:20:00,
2013-08-22 12:35:00,76.8,51.3,30.03,North,360,11.0,12.0,41,0.00,,,0.00,Wunderground v.1.15,2013-08-22 18:35:00,
2013-08-22 12:50:00,77.6,52.7,30.02,North,360,11.0,11.0,42,0.00,,,0.00,Wunderground v.1.15,2013-08-22 18:50:00,
2013-08-22 13:05:00,78.4,52.7,30.01,North,360,11.0,11.0,41,0.00,,,0.00,Wunderground v.1.15,2013-08-22 19:05:00,
2013-08-22 13:10:00,78.7,53.7,30.01,North,360,7.0,13.0,42,0.00,,,0.00,Wunderground v.1.15,2013-08-22 19:10:00,
2013-08-22 13:20:00,79.1,54.0,30.00,North,360,9.0,13.0,42,0.00,,,0.00,Wunderground v.1.15,2013-08-22 19:20:00,
2013-08-22 13:35:00,79.3,54.2,30.00,North,360,11.0,11.0,42,0.00,,,0.00,Wunderground v.1.15,2013-08-22 19:35:00,
2013-08-22 13:50:00,79.9,54.1,29.99,North,360,9.0,9.0,41,0.00,,,0.00,Wunderground v.1.15,2013-08-22 19:50:00,
2013-08-22 14:05:00,80.3,55.1,29.98,North,360,9.0,19.0,42,0.00,,,0.00,Wunderground v.1.15,2013-08-22 20:05:00,
2013-08-22 14:20:00,80.8,56.2,29.97,North,360,8.0,8.0,43,0.00,,,0.00,Wunderground v.1.15,2013-08-22 20:20:00,
2013-08-22 14:35:00,80.9,55.0,29.97,North,360,8.0,8.0,41,0.00,,,0.00,Wunderground v.1.15,2013-08-22 20:35:00,
2013-08-22 14:50:00,81.5,55.5,29.96,North,360,11.0,11.0,41,0.00,,,0.00,Wunderground v.1.15,2013-08-22 20:50:00,
2013-08-22 15:05:00,82.3,55.6,29.95,North,360,10.0,12.0,40,0.00,,,0.00,Wunderground v.1.15,2013-08-22 21:05:00,
2013-08-22 15:20:00,83.3,56.5,29.94,North,360,7.0,7.0,40,0.00,,,0.00,Wunderground v.1.15,2013-08-22 21:20:00,
2013-08-22 15:35:00,83.4,56.5,29.93,North,360,8.0,12.0,40,0.00,,,0.00,Wunderground v.1.15,2013-08-22 21:35:00,
2013-08-22 15:50:00,83.5,56.6,29.93,North,360,9.0,9.0,40,0.00,,,0.00,Wunderground v.1.15,2013-08-22 21:50:00,
2013-08-22 16:05:00,83.9,57.7,29.92,North,360,10.0,10.0,41,0.00,,,0.00,Wunderground v.1.15,2013-08-22 22:05:00,
2013-08-22 16:20:00,84.1,57.2,29.92,North,360,10.0,10.0,40,0.00,,,0.00,Wunderground v.1.15,2013-08-22 22:20:00,
2013-08-22 16:35:00,84.4,58.1,29.91,North,360,9.0,11.0,41,0.00,,,0.00,Wunderground v.1.15,2013-08-22 22:35:00,
2013-08-22 16:50:00,84.7,57.7,29.90,North,360,8.0,8.0,40,0.00,,,0.00,Wunderground v.1.15,2013-08-22 22:50:00,
2013-08-22 17:05:00,84.4,58.1,29.90,North,360,8.0,8.0,41,0.00,,,0.00,Wunderground v.1.15,2013-08-22 23:05:00,
2013-08-22 17:10:00,84.7,58.4,29.89,North,360,8.0,8.0,41,0.00,,,0.00,Wunderground v.1.15,2013-08-22 23:10:00,
2013-08-22 17:20:00,84.9,58.6,29.89,North,360,7.0,7.0,41,0.00,,,0.00,Wunderground v.1.15,2013-08-22 23:20:00,
2013-08-22 17:25:00,84.9,58.6,29.89,North,360,8.0,8.0,41,0.00,,,0.00,Wunderground v.1.15,2013-08-22 23:25:00,
2013-08-22 17:35:00,84.9,58.6,29.88,North,360,8.0,9.0,41,0.00,,,0.00,Wunderground v.1.15,2013-08-22 23:35:00,
2013-08-22 17:40:00,84.7,59.1,29.88,North,360,9.0,9.0,42,0.00,,,0.00,Wunderground v.1.15,2013-08-22 23:40:00,
2013-08-22 17:50:00,84.6,59.0,29.88,North,360,8.0,15.0,42,0.00,,,0.00,Wunderground v.1.15,2013-08-22 23:50:00,
2013-08-22 18:05:00,84.5,58.9,29.87,North,360,9.0,10.0,42,0.00,,,0.00,Wunderground v.1.15,2013-08-23 00:05:00,
2013-08-22 18:20:00,84.3,58.0,29.87,North,360,8.0,8.0,41,0.00,,,0.00,Wunderground v.1.15,2013-08-23 00:20:00,
2013-08-22 18:35:00,83.8,58.3,29.86,North,360,9.0,9.0,42,0.00,,,0.00,Wunderground v.1.15,2013-08-23 00:35:00,
2013-08-22 18:50:00,83.2,58.4,29.86,North,360,8.0,8.0,43,0.00,,,0.00,Wunderground v.1.15,2013-08-23 00:50:00,
2013-08-22 18:55:00,83.0,58.2,29.86,North,360,8.0,8.0,43,0.00,,,0.00,Wunderground v.1.15,2013-08-23 00:55:00,
2013-08-22 19:05:00,82.7,57.9,29.86,North,360,9.0,9.0,43,0.00,,,0.00,Wunderground v.1.15,2013-08-23 01:05:00,
2013-08-22 19:20:00,81.5,58.1,29.86,North,360,6.0,13.0,45,0.00,,,0.00,Wunderground v.1.15,2013-08-23 01:20:00,
2013-08-22 19:35:00,80.8,58.1,29.85,North,360,7.0,7.0,46,0.00,,,0.00,Wunderground v.1.15,2013-08-23 01:35:00,
2013-08-22 19:50:00,-999.9,-99.9,29.86,North,32767,-999.0,0.0,255,-99.99,,,0.00,Wunderground v.1.15,2013-08-23 01:50:00,
2013-08-22 20:05:00,-999.9,-99.9,29.85,North,32767,-999.0,0.0,255,-99.99,,,0.00,Wunderground v.1.15,2013-08-23 02:05:00,
2013-08-22 20:20:00,-999.9,-99.9,29.86,North,32767,-999.0,0.0,255,-99.99,,,0.00,Wunderground v.1.15,2013-08-23 02:20:00,
2013-08-22 20:35:00,-999.9,-99.9,29.86,North,32767,-999.0,0.0,255,-99.99,,,0.00,Wunderground v.1.15,2013-08-23 02:35:00,
2013-08-22 20:50:00,-999.9,-99.9,29.86,North,32767,-999.0,0.0,255,-99.99,,,0.00,Wunderground v.1.15,2013-08-23 02:50:00,
2013-08-22 21:05:00,-999.9,-99.9,29.87,North,32767,-999.0,0.0,255,-99.99,,,0.00,Wunderground v.1.15,2013-08-23 03:05:00,
2013-08-22 21:20:00,-999.9,-99.9,29.87,North,32767,-999.0,0.0,255,-99.99,,,0.00,Wunderground v.1.15,2013-08-23 03:20:00,
2013-08-22 21:35:00,-999.9,-99.9,29.87,North,32767,-999.0,0.0,255,-99.99,,,0.00,Wunderground v.1.15,2013-08-23 03:35:00,
2013-08-22 21:50:00,-999.9,-99.9,29.87,North,32767,-999.0,0.0,255,-99.99,,,0.00,Wunderground v.1.15,2013-08-23 03:50:00,
2013-08-22 22:05:00,-999.9,-99.9,29.87,North,32767,-999.0,0.0,255,-99.99,,,0.00,Wunderground v.1.15,2013-08-23 04:05:00,
2013-08-22 22:20:00,-999.9,-99.9,29.87,North,32767,-999.0,0.0,255,-99.99,,,0.00,Wunderground v.1.15,2013-08-23 04:20:00,
2013-08-22 22:35:00,-999.9,-99.9,29.87,North,32767,-999.0,0.0,255,-99.99,,,0.00,Wunderground v.1.15,2013-08-23 04:35:00,
2013-08-22 22:50:00,-999.9,-99.9,29.87,North,32767,-999.0,0.0,255,-99.99,,,0.00,Wunderground v.1.15,2013-08-23 04:50:00,
2013-08-22 22:55:00,-999.9,-99.9,29.86,North,32767,-999.0,0.0,255,-99.99,,,0.00,Wunderground v.1.15,2013-08-23 04:55:00,
2013-08-22 23:05:00,-999.9,-99.9,29.86,North,32767,-999.0,0.0,255,-99.99,,,0.00,Wunderground v.1.15,2013-08-23 05:05:00,
2013-08-22 23:20:00,-999.9,-99.9,29.86,North,32767,-999.0,0.0,255,-99.99,,,0.00,Wunderground v.1.15,2013-08-23 05:20:00,
2013-08-22 23:35:00,-999.9,-99.9,29.86,North,32767,-999.0,0.0,255,-99.99,,,0.00,Wunderground v.1.15,2013-08-23 05:35:00,
2013-08-22 23:50:00,-999.9,-99.9,29.85,North,32767,-999.0,0.0,255,-99.99,,,0.00,Wunderground v.1.15,2013-08-23 05:50:00,
2013-08-22 23:55:00,-999.9,-99.9,29.85,North,32767,-999.0,0.0,255,-99.99,,,0.00,Wunderground v.1.15,2013-08-23 05:55:00,